Terminal Aerodrome Forecast
Issued by NWS

Home | Current Version | Previous Version | Text Only | Print | Product List | Glossary On
Versions: 1 2 3 4 5 6 7 8 9 10 11 12 13 14 15 16
335
FTPA31 PHFO 051723
TAFHOG
TAF
PHOG 051723Z 0518/0618 VRB05KT P6SM -SHRA FEW030 SCT050 BKN100
     FM052100 01009KT P6SM VCSH SCT025 BKN050
     FM060500 VRB05KT P6SM SCT025 SCT050=

USA.gov is the U.S. government's official web portal to all federal, state and local government web resources and services.